Time;durP1;ratioP1;P1;durP2;ratioP2;P2;SDS_P1;SDS_P2;PMS_P1;PMS_P2;Temp;Humidity;BMP_temperature;BMP_pressure;BME280_temperature;BME280_humidity;BME280_pressure;Samples;Min_cycle;Max_cycle;Signal;HPM_P1;HPM_P2
2023/04/28 00:00:25;;;;;;;4.80;3.70;;;;;;;;;;5088213;28;20283;-76
2023/04/28 00:02:51;;;;;;;4.17;3.50;;;;;;;;;;5085386;28;20215;-75
2023/04/28 00:05:16;;;;;;;6.20;3.40;;;;;;;;;;5088267;28;20187;-76
2023/04/28 00:07:42;;;;;;;3.80;3.37;;;;;;;;;;5078187;28;20265;-76
2023/04/28 00:10:07;;;;;;;4.17;3.70;;;;;;;;;;5091539;28;20271;-76
2023/04/28 00:12:33;;;;;;;4.23;3.00;;;;;;;;;;5086465;28;20295;-75
2023/04/28 00:14:58;;;;;;;5.03;3.57;;;;;;;;;;5081564;28;20172;-76
2023/04/28 00:17:23;;;;;;;4.97;3.37;;;;;;;;;;5088521;28;20171;-76
2023/04/28 00:19:49;;;;;;;3.53;3.17;;;;;;;;;;5079552;28;20263;-76
2023/04/28 00:22:14;;;;;;;3.63;2.80;;;;;;;;;;5086929;28;20182;-76
2023/04/28 00:24:40;;;;;;;5.03;3.60;;;;;;;;;;5082711;28;20184;-76
2023/04/28 00:27:06;;;;;;;4.43;3.47;;;;;;;;;;5077752;28;20228;-75
2023/04/28 00:29:31;;;;;;;5.40;3.13;;;;;;;;;;5093818;27;20307;-76
2023/04/28 00:31:56;;;;;;;5.87;3.13;;;;;;;;;;5087586;28;20208;-76
2023/04/28 00:34:21;;;;;;;3.23;2.53;;;;;;;;;;5082473;28;20236;-76
2023/04/28 00:36:47;;;;;;;2.93;2.67;;;;;;;;;;5085758;28;20192;-76
2023/04/28 00:39:12;;;;;;;3.93;3.43;;;;;;;;;;5083022;28;20184;-76
2023/04/28 00:41:37;;;;;;;3.10;2.80;;;;;;;;;;5085741;28;20195;-76
2023/04/28 00:44:02;;;;;;;4.93;2.93;;;;;;;;;;5088140;28;20187;-76
2023/04/28 00:46:32;;;;;;;2.67;2.47;;;;;;;;;;5085355;28;20192;-76
2023/04/28 00:48:57;;;;;;;6.77;2.70;;;;;;;;;;5083842;28;20261;-76
2023/04/28 00:51:22;;;;;;;2.60;2.40;;;;;;;;;;5084564;28;20179;-75
2023/04/28 00:53:48;;;;;;;3.90;2.10;;;;;;;;;;5084806;28;20212;-76
2023/04/28 00:56:14;;;;;;;5.77;2.50;;;;;;;;;;5084525;28;20203;-76
2023/04/28 00:58:40;;;;;;;3.40;2.40;;;;;;;;;;5081990;28;20210;-76
2023/04/28 01:01:06;;;;;;;3.70;2.50;;;;;;;;;;5080098;28;20179;-76
2023/04/28 01:03:38;;;;;;;3.20;2.37;;;;;;;;;;5081844;28;20211;-76
2023/04/28 01:06:04;;;;;;;2.73;2.53;;;;;;;;;;5093716;28;20180;-75
2023/04/28 01:08:30;;;;;;;3.33;3.03;;;;;;;;;;5086214;28;20200;-76
2023/04/28 01:10:55;;;;;;;3.80;2.73;;;;;;;;;;5082851;28;20226;-75
2023/04/28 01:13:20;;;;;;;2.97;2.63;;;;;;;;;;5098050;27;20172;-75
2023/04/28 01:15:46;;;;;;;2.97;2.30;;;;;;;;;;5079302;28;20176;-75
2023/04/28 01:18:12;;;;;;;3.47;2.60;;;;;;;;;;5085157;28;20195;-76
2023/04/28 01:20:37;;;;;;;3.37;2.43;;;;;;;;;;5086443;28;20267;-75
2023/04/28 01:23:02;;;;;;;3.70;3.00;;;;;;;;;;5084092;28;20187;-76
2023/04/28 01:25:27;;;;;;;3.10;2.80;;;;;;;;;;5086292;28;20339;-76
2023/04/28 01:27:53;;;;;;;3.90;2.83;;;;;;;;;;5079217;28;20224;-75
2023/04/28 01:30:18;;;;;;;2.50;2.30;;;;;;;;;;5098924;28;20277;-76
2023/04/28 01:32:43;;;;;;;2.60;2.40;;;;;;;;;;5078359;28;20176;-75
2023/04/28 01:35:08;;;;;;;3.70;2.27;;;;;;;;;;5103137;27;20192;-76
2023/04/28 01:37:33;;;;;;;2.83;2.63;;;;;;;;;;5082752;28;20201;-76
2023/04/28 01:39:58;;;;;;;2.77;2.50;;;;;;;;;;5085429;28;20191;-76
2023/04/28 01:42:24;;;;;;;4.53;3.03;;;;;;;;;;5085582;28;20174;-76
2023/04/28 01:44:49;;;;;;;3.37;2.77;;;;;;;;;;5083808;28;20240;-75
2023/04/28 01:47:14;;;;;;;3.70;2.97;;;;;;;;;;5085999;28;20176;-76
2023/04/28 01:49:40;;;;;;;4.50;2.70;;;;;;;;;;5085284;28;20208;-76
2023/04/28 01:52:05;;;;;;;3.43;2.83;;;;;;;;;;5084556;28;20173;-76
2023/04/28 01:54:30;;;;;;;2.93;2.50;;;;;;;;;;5084551;28;20192;-76
2023/04/28 01:56:56;;;;;;;4.53;3.03;;;;;;;;;;5080836;28;20187;-75
2023/04/28 01:59:21;;;;;;;2.97;2.50;;;;;;;;;;5100124;28;20282;-75
2023/04/28 02:01:46;;;;;;;3.07;2.73;;;;;;;;;;5083515;28;20179;-75
2023/04/28 02:04:11;;;;;;;3.10;2.80;;;;;;;;;;5080912;28;20238;-76
2023/04/28 02:06:36;;;;;;;2.73;2.53;;;;;;;;;;5084726;28;20212;-76
2023/04/28 02:09:02;;;;;;;3.27;2.60;;;;;;;;;;5086533;28;20201;-76
2023/04/28 02:11:27;;;;;;;3.03;2.70;;;;;;;;;;5096873;28;20173;-76
2023/04/28 02:13:52;;;;;;;4.47;2.90;;;;;;;;;;5083548;28;20192;-76
2023/04/28 02:16:17;;;;;;;4.10;2.77;;;;;;;;;;5078325;28;20190;-76
2023/04/28 02:18:42;;;;;;;3.23;2.93;;;;;;;;;;5085786;28;20279;-76
2023/04/28 02:21:09;;;;;;;6.47;3.10;;;;;;;;;;5097098;28;20192;-75
2023/04/28 02:23:34;;;;;;;3.20;2.97;;;;;;;;;;5090888;28;20190;-76
2023/04/28 02:26:00;;;;;;;3.27;2.80;;;;;;;;;;5082886;28;20226;-75
2023/04/28 02:28:25;;;;;;;3.53;3.07;;;;;;;;;;5090662;28;20243;-75
2023/04/28 02:30:51;;;;;;;2.90;2.60;;;;;;;;;;5088946;28;20193;-76
2023/04/28 02:33:16;;;;;;;5.00;2.93;;;;;;;;;;5086356;28;20187;-76
2023/04/28 02:35:42;;;;;;;2.97;2.67;;;;;;;;;;5080911;28;20172;-75
2023/04/28 02:38:07;;;;;;;3.40;3.00;;;;;;;;;;5086871;28;20176;-76
2023/04/28 02:40:32;;;;;;;3.43;3.13;;;;;;;;;;5092185;28;20187;-76
2023/04/28 02:42:57;;;;;;;6.23;3.30;;;;;;;;;;5081961;28;20180;-76
2023/04/28 02:45:22;;;;;;;3.33;2.93;;;;;;;;;;5090229;28;20195;-76
2023/04/28 02:47:47;;;;;;;3.20;2.90;;;;;;;;;;5087363;28;20314;-76
2023/04/28 02:50:13;;;;;;;2.90;2.70;;;;;;;;;;5085801;28;20172;-76
2023/04/28 02:52:38;;;;;;;4.67;2.67;;;;;;;;;;5089538;28;20252;-76
2023/04/28 02:55:03;;;;;;;3.03;2.73;;;;;;;;;;5087864;28;20177;-76
2023/04/28 02:57:29;;;;;;;5.07;3.20;;;;;;;;;;5087493;28;20180;-76
2023/04/28 02:59:54;;;;;;;5.20;2.60;;;;;;;;;;5090400;28;20191;-76
2023/04/28 03:02:21;;;;;;;4.87;3.07;;;;;;;;;;5087278;28;20287;-76
2023/04/28 03:04:46;;;;;;;2.13;1.93;;;;;;;;;;5081518;28;20200;-76
2023/04/28 03:07:12;;;;;;;2.47;2.27;;;;;;;;;;5089051;28;20176;-76
2023/04/28 03:09:37;;;;;;;2.40;2.20;;;;;;;;;;5085391;28;20208;-76
2023/04/28 03:12:02;;;;;;;2.87;2.60;;;;;;;;;;5090051;28;20223;-76
2023/04/28 03:14:27;;;;;;;2.83;2.20;;;;;;;;;;5089712;28;20184;-76
2023/04/28 03:16:53;;;;;;;2.73;2.53;;;;;;;;;;5088786;28;20176;-76
2023/04/28 03:19:21;;;;;;;2.63;2.13;;;;;;;;;;5084386;28;20238;-76
2023/04/28 03:21:46;;;;;;;2.33;2.13;;;;;;;;;;5084153;28;20181;-76
2023/04/28 03:24:11;;;;;;;3.03;2.30;;;;;;;;;;5087482;28;20176;-76
2023/04/28 03:26:37;;;;;;;2.43;2.10;;;;;;;;;;5087687;28;20180;-76
2023/04/28 03:29:02;;;;;;;3.87;2.77;;;;;;;;;;5089845;28;20204;-76
2023/04/28 03:31:28;;;;;;;3.13;2.30;;;;;;;;;;5083146;28;20176;-76
2023/04/28 03:33:53;;;;;;;3.20;2.67;;;;;;;;;;5081507;28;20185;-76
2023/04/28 03:36:18;;;;;;;3.13;2.83;;;;;;;;;;5087614;28;20181;-76
2023/04/28 03:38:43;;;;;;;3.00;2.03;;;;;;;;;;5086803;28;20238;-76
2023/04/28 03:41:09;;;;;;;2.57;2.37;;;;;;;;;;5084185;28;20176;-76
2023/04/28 03:43:36;;;;;;;2.13;2.03;;;;;;;;;;5081816;28;20177;-76
2023/04/28 03:46:01;;;;;;;2.93;2.30;;;;;;;;;;5086946;28;20182;-76
2023/04/28 03:48:26;;;;;;;1.90;1.80;;;;;;;;;;5090555;28;20204;-76
2023/04/28 03:50:52;;;;;;;2.57;2.37;;;;;;;;;;5087317;28;20184;-76
2023/04/28 03:53:17;;;;;;;2.37;2.17;;;;;;;;;;5086954;28;20172;-76
2023/04/28 03:55:43;;;;;;;3.13;2.83;;;;;;;;;;5085584;28;20181;-76
2023/04/28 03:58:08;;;;;;;3.30;2.33;;;;;;;;;;5091016;28;20183;-76
2023/04/28 04:00:33;;;;;;;3.27;2.60;;;;;;;;;;5087393;28;20185;-76
2023/04/28 04:02:58;;;;;;;2.50;2.30;;;;;;;;;;5092403;28;20246;-76
2023/04/28 04:05:23;;;;;;;2.53;2.30;;;;;;;;;;5085737;28;20191;-75
2023/04/28 04:07:49;;;;;;;3.50;2.73;;;;;;;;;;5083323;28;20184;-75
2023/04/28 04:10:14;;;;;;;2.60;2.40;;;;;;;;;;5096995;28;20185;-75
2023/04/28 04:12:39;;;;;;;2.47;2.27;;;;;;;;;;5083933;28;20192;-76
2023/04/28 04:15:05;;;;;;;3.50;2.60;;;;;;;;;;5086103;28;20245;-76
2023/04/28 04:17:31;;;;;;;3.23;2.30;;;;;;;;;;5087167;28;20174;-76
2023/04/28 04:19:56;;;;;;;2.40;2.20;;;;;;;;;;5084951;28;20238;-75
2023/04/28 04:22:21;;;;;;;2.77;2.57;;;;;;;;;;5090283;28;20230;-75
2023/04/28 04:24:46;;;;;;;2.73;2.40;;;;;;;;;;5086852;28;20385;-76
2023/04/28 04:27:12;;;;;;;3.30;2.30;;;;;;;;;;5086055;28;20297;-76
2023/04/28 04:29:37;;;;;;;2.63;2.40;;;;;;;;;;5090093;28;20271;-75
2023/04/28 04:32:02;;;;;;;2.50;2.00;;;;;;;;;;5082405;28;20245;-76
2023/04/28 04:34:28;;;;;;;3.47;3.17;;;;;;;;;;5077891;28;20179;-76
2023/04/28 04:36:53;;;;;;;2.50;2.30;;;;;;;;;;5084662;28;20226;-76
2023/04/28 04:39:18;;;;;;;3.13;2.17;;;;;;;;;;5088168;28;20196;-76
2023/04/28 04:41:43;;;;;;;4.43;2.70;;;;;;;;;;5085120;28;20208;-76
2023/04/28 04:44:08;;;;;;;2.47;2.27;;;;;;;;;;5086807;28;20231;-75
2023/04/28 04:46:34;;;;;;;2.83;2.30;;;;;;;;;;5083610;28;20208;-76
2023/04/28 04:48:59;;;;;;;3.00;2.10;;;;;;;;;;5084009;28;20200;-76
2023/04/28 04:51:24;;;;;;;4.30;2.37;;;;;;;;;;5081705;28;20259;-75
2023/04/28 04:53:50;;;;;;;2.83;2.57;;;;;;;;;;5085602;28;20178;-76
2023/04/28 04:56:15;;;;;;;2.40;2.20;;;;;;;;;;5083969;28;20177;-76
2023/04/28 04:58:43;;;;;;;3.70;2.40;;;;;;;;;;5103007;27;20224;-76
2023/04/28 05:01:08;;;;;;;2.83;2.30;;;;;;;;;;5085175;28;20192;-76
2023/04/28 05:03:33;;;;;;;2.97;2.30;;;;;;;;;;5084516;28;20197;-75
2023/04/28 05:05:58;;;;;;;2.77;2.57;;;;;;;;;;5083780;28;20168;-76
2023/04/28 05:08:23;;;;;;;2.83;2.50;;;;;;;;;;5105129;27;20285;-75
2023/04/28 05:10:49;;;;;;;2.40;2.07;;;;;;;;;;5083442;28;20176;-75
2023/04/28 05:13:14;;;;;;;2.40;2.20;;;;;;;;;;5084130;28;20180;-76
2023/04/28 05:15:39;;;;;;;2.77;2.50;;;;;;;;;;5092129;28;20197;-76
2023/04/28 05:18:09;;;;;;;4.20;2.50;;;;;;;;;;5085077;28;20209;-76
2023/04/28 05:20:35;;;;;;;3.07;2.43;;;;;;;;;;5083806;28;20184;-76
2023/04/28 05:23:00;;;;;;;2.97;2.77;;;;;;;;;;5078864;28;20192;-76
2023/04/28 05:25:25;;;;;;;2.97;2.30;;;;;;;;;;5088041;28;20172;-76
2023/04/28 05:27:50;;;;;;;3.63;2.13;;;;;;;;;;5084561;28;20214;-76
2023/04/28 05:30:16;;;;;;;2.70;2.50;;;;;;;;;;5086996;28;20315;-76
2023/04/28 05:32:41;;;;;;;2.53;2.10;;;;;;;;;;5082071;28;20181;-76
2023/04/28 05:35:06;;;;;;;3.47;2.67;;;;;;;;;;5084846;28;20185;-76
2023/04/28 05:37:31;;;;;;;2.67;2.30;;;;;;;;;;5081513;28;20185;-76
2023/04/28 05:39:57;;;;;;;2.63;2.27;;;;;;;;;;5081282;28;20208;-78
2023/04/28 05:42:22;;;;;;;2.63;2.30;;;;;;;;;;5082129;28;20175;-78
2023/04/28 05:44:47;;;;;;;3.60;2.50;;;;;;;;;;5081441;28;20180;-76
2023/04/28 05:47:12;;;;;;;2.60;2.10;;;;;;;;;;5079056;28;20173;-76
2023/04/28 05:49:37;;;;;;;3.53;2.20;;;;;;;;;;5079696;28;20212;-76
2023/04/28 05:52:03;;;;;;;2.50;2.30;;;;;;;;;;5084208;28;20241;-76
2023/04/28 05:54:28;;;;;;;3.83;2.17;;;;;;;;;;5084650;28;20172;-76
2023/04/28 05:56:54;;;;;;;3.00;2.77;;;;;;;;;;5078555;28;20174;-76
2023/04/28 05:59:19;;;;;;;4.47;4.13;;;;;;;;;;5088685;28;20183;-76
2023/04/28 06:01:44;;;;;;;3.00;2.40;;;;;;;;;;5088829;28;20271;-76
2023/04/28 06:04:10;;;;;;;3.40;2.33;;;;;;;;;;5088353;28;20164;-76
2023/04/28 06:06:35;;;;;;;3.17;2.87;;;;;;;;;;5088935;28;20283;-76
2023/04/28 06:09:00;;;;;;;3.77;2.33;;;;;;;;;;5091092;28;20200;-76
2023/04/28 06:11:26;;;;;;;3.17;2.60;;;;;;;;;;5083724;28;20203;-76
2023/04/28 06:13:51;;;;;;;2.70;2.50;;;;;;;;;;5087104;28;20234;-76
2023/04/28 06:16:16;;;;;;;2.43;2.23;;;;;;;;;;5086113;28;20250;-76
2023/04/28 06:18:42;;;;;;;2.77;2.57;;;;;;;;;;5094460;28;20249;-76
2023/04/28 06:21:07;;;;;;;2.37;2.17;;;;;;;;;;5085087;28;20185;-76
2023/04/28 06:23:32;;;;;;;2.40;2.20;;;;;;;;;;5091458;28;20191;-76
2023/04/28 06:25:58;;;;;;;3.37;2.20;;;;;;;;;;5083744;28;20281;-76
2023/04/28 06:28:23;;;;;;;2.10;1.90;;;;;;;;;;5084328;28;20225;-76
2023/04/28 06:30:48;;;;;;;2.37;2.10;;;;;;;;;;5092988;28;20184;-76
2023/04/28 06:33:13;;;;;;;2.47;2.27;;;;;;;;;;5104009;28;20180;-76
2023/04/28 06:35:39;;;;;;;2.03;1.90;;;;;;;;;;5085839;28;20261;-76
2023/04/28 06:38:05;;;;;;;4.27;2.80;;;;;;;;;;5083773;28;20292;-76
2023/04/28 06:40:31;;;;;;;3.03;2.10;;;;;;;;;;5089704;28;20193;-76
2023/04/28 06:42:56;;;;;;;3.20;3.00;;;;;;;;;;5080210;28;20203;-75
2023/04/28 06:45:21;;;;;;;6.37;5.07;;;;;;;;;;5088608;28;20187;-76
2023/04/28 06:47:46;;;;;;;1.90;1.80;;;;;;;;;;5093314;28;20222;-76
2023/04/28 06:50:12;;;;;;;3.27;2.93;;;;;;;;;;5089846;28;20321;-75
2023/04/28 06:52:40;;;;;;;2.17;2.00;;;;;;;;;;5090380;28;20180;-76
2023/04/28 06:55:06;;;;;;;3.67;2.70;;;;;;;;;;5089860;28;20178;-76
2023/04/28 06:57:31;;;;;;;7.23;5.80;;;;;;;;;;5085224;28;20194;-76
2023/04/28 06:59:56;;;;;;;2.67;2.23;;;;;;;;;;5086387;28;20806;-76
2023/04/28 07:02:22;;;;;;;2.50;2.30;;;;;;;;;;5079620;28;20196;-76
2023/04/28 07:04:48;;;;;;;1.90;1.80;;;;;;;;;;5083306;28;20183;-76
2023/04/28 07:07:13;;;;;;;1.90;1.80;;;;;;;;;;5087709;28;20187;-76
2023/04/28 07:09:38;;;;;;;1.80;1.70;;;;;;;;;;5087068;28;20200;-76
2023/04/28 07:12:04;;;;;;;2.93;2.27;;;;;;;;;;5080499;28;20192;-76
2023/04/28 07:14:29;;;;;;;1.90;1.80;;;;;;;;;;5087443;28;20176;-76
2023/04/28 07:16:54;;;;;;;2.23;2.03;;;;;;;;;;5087734;28;20180;-76
2023/04/28 07:19:20;;;;;;;1.67;1.57;;;;;;;;;;5078183;28;20228;-75
2023/04/28 07:21:45;;;;;;;1.80;1.70;;;;;;;;;;5095895;28;20181;-76
2023/04/28 07:24:11;;;;;;;1.80;1.70;;;;;;;;;;5084710;28;20178;-76
2023/04/28 07:26:36;;;;;;;2.70;2.50;;;;;;;;;;5087911;28;20238;-76
2023/04/28 07:29:01;;;;;;;1.80;1.70;;;;;;;;;;5081336;28;20222;-76
2023/04/28 07:31:27;;;;;;;1.80;1.70;;;;;;;;;;5086984;28;20185;-75
2023/04/28 07:33:52;;;;;;;2.23;2.00;;;;;;;;;;5080227;28;20261;-76
2023/04/28 07:36:18;;;;;;;1.83;1.73;;;;;;;;;;5085799;28;20257;-76
2023/04/28 07:38:43;;;;;;;2.80;2.60;;;;;;;;;;5092256;28;20177;-76
2023/04/28 07:41:08;;;;;;;2.00;1.90;;;;;;;;;;5099864;28;20276;-76
2023/04/28 07:43:34;;;;;;;1.47;1.37;;;;;;;;;;5081681;28;20180;-76
2023/04/28 07:45:59;;;;;;;1.70;1.60;;;;;;;;;;5081972;28;20262;-76
2023/04/28 07:48:26;;;;;;;1.70;1.60;;;;;;;;;;5091990;28;20252;-76
2023/04/28 07:50:51;;;;;;;1.60;1.50;;;;;;;;;;5082683;28;20184;-76
2023/04/28 07:53:16;;;;;;;1.80;1.70;;;;;;;;;;5086351;28;20182;-76
2023/04/28 07:55:43;;;;;;;1.60;1.50;;;;;;;;;;5087394;28;20200;-76
2023/04/28 07:58:08;;;;;;;2.00;1.70;;;;;;;;;;5092459;28;20273;-76
2023/04/28 08:00:33;;;;;;;1.50;1.40;;;;;;;;;;5085697;28;20263;-76
2023/04/28 08:02:59;;;;;;;2.13;1.60;;;;;;;;;;5085710;28;20304;-76
2023/04/28 08:05:24;;;;;;;1.37;1.27;;;;;;;;;;5088578;28;20170;-76
2023/04/28 08:07:49;;;;;;;1.20;1.20;;;;;;;;;;5081664;28;20177;-76
2023/04/28 08:10:15;;;;;;;10.90;7.47;;;;;;;;;;5084203;28;20202;-76
2023/04/28 08:12:40;;;;;;;16.07;12.63;;;;;;;;;;5086574;28;20273;-76
2023/04/28 08:15:06;;;;;;;7.80;5.33;;;;;;;;;;5089901;27;20178;-76
2023/04/28 08:17:31;;;;;;;11.93;7.77;;;;;;;;;;5081290;28;20272;-76
2023/04/28 08:19:57;;;;;;;1.50;1.40;;;;;;;;;;5082807;28;20175;-76
2023/04/28 08:22:22;;;;;;;1.13;1.13;;;;;;;;;;5084977;28;20253;-76
2023/04/28 08:24:47;;;;;;;5.40;3.67;;;;;;;;;;5085484;28;20201;-76
2023/04/28 08:27:13;;;;;;;0.80;0.80;;;;;;;;;;5080997;28;20246;-76
2023/04/28 08:29:39;;;;;;;1.57;1.20;;;;;;;;;;5078082;28;20246;-76
2023/04/28 08:32:05;;;;;;;1.30;1.20;;;;;;;;;;5087553;28;20199;-76
2023/04/28 08:34:30;;;;;;;0.87;0.87;;;;;;;;;;5086113;28;20190;-76
2023/04/28 08:36:56;;;;;;;0.87;0.87;;;;;;;;;;5084875;28;20174;-76
2023/04/28 08:39:22;;;;;;;0.90;0.90;;;;;;;;;;5085878;28;20231;-76
2023/04/28 08:41:47;;;;;;;0.80;0.80;;;;;;;;;;5078297;28;20204;-76
2023/04/28 08:44:13;;;;;;;0.73;0.70;;;;;;;;;;5086989;28;20205;-77
2023/04/28 08:46:42;;;;;;;1.03;1.00;;;;;;;;;;5088920;28;20187;-76
2023/04/28 08:49:11;;;;;;;0.83;0.83;;;;;;;;;;5085003;28;20202;-76
2023/04/28 08:51:42;;;;;;;0.70;0.70;;;;;;;;;;5084384;28;20169;-77
2023/04/28 08:54:09;;;;;;;0.83;0.83;;;;;;;;;;5076978;28;20275;-76
2023/04/28 08:56:35;;;;;;;0.80;0.80;;;;;;;;;;5087368;28;20186;-77
2023/04/28 08:59:01;;;;;;;1.17;1.10;;;;;;;;;;5078846;28;20187;-76
2023/04/28 09:01:26;;;;;;;1.00;1.00;;;;;;;;;;5082575;28;20262;-76
2023/04/28 09:03:53;;;;;;;1.00;1.00;;;;;;;;;;5077699;28;20211;-76
2023/04/28 09:06:21;;;;;;;1.03;1.00;;;;;;;;;;5089097;28;20213;-76
2023/04/28 09:08:46;;;;;;;1.00;1.00;;;;;;;;;;5077629;28;20207;-76
2023/04/28 09:11:12;;;;;;;0.93;0.93;;;;;;;;;;5081565;28;20207;-76
2023/04/28 09:13:38;;;;;;;0.93;0.93;;;;;;;;;;5085982;28;20206;-76
2023/04/28 09:16:04;;;;;;;1.40;1.30;;;;;;;;;;5090237;28;20281;-76
2023/04/28 09:18:32;;;;;;;1.00;1.00;;;;;;;;;;5080873;28;20257;-76
2023/04/28 09:21:04;;;;;;;1.40;1.07;;;;;;;;;;5081788;28;20285;-76
2023/04/28 09:23:29;;;;;;;5.37;3.43;;;;;;;;;;5079826;28;20174;-76
2023/04/28 09:25:58;;;;;;;1.43;1.33;;;;;;;;;;5083057;28;20200;-76
2023/04/28 09:28:23;;;;;;;6.33;5.10;;;;;;;;;;5076458;28;20231;-76
2023/04/28 09:30:49;;;;;;;1.67;1.57;;;;;;;;;;5091189;28;20182;-76
2023/04/28 09:33:15;;;;;;;1.20;1.10;;;;;;;;;;5085281;28;20270;-76
2023/04/28 09:35:47;;;;;;;0.83;0.83;;;;;;;;;;5099292;28;20190;-77
2023/04/28 09:38:12;;;;;;;1.10;1.00;;;;;;;;;;5073881;28;20182;-76
2023/04/28 09:40:57;;;;;;;0.80;0.80;;;;;;;;;;5088380;28;20175;-76
2023/04/28 09:43:25;;;;;;;0.93;0.90;;;;;;;;;;5086812;28;20173;-76
2023/04/28 09:45:51;;;;;;;0.90;0.90;;;;;;;;;;5087018;28;20179;-76
2023/04/28 09:48:17;;;;;;;0.93;0.93;;;;;;;;;;5080880;28;20227;-76
2023/04/28 09:50:43;;;;;;;0.97;0.97;;;;;;;;;;5076883;28;20199;-76
2023/04/28 09:53:10;;;;;;;0.93;0.93;;;;;;;;;;5086260;28;20180;-76
2023/04/28 09:55:37;;;;;;;0.70;0.70;;;;;;;;;;5091750;28;20213;-77
2023/04/28 09:58:04;;;;;;;1.03;0.90;;;;;;;;;;5081806;28;20178;-76
2023/04/28 10:00:32;;;;;;;0.80;0.80;;;;;;;;;;5082945;28;20178;-76
2023/04/28 10:02:58;;;;;;;1.83;0.97;;;;;;;;;;5077974;28;20208;-76
2023/04/28 10:05:24;;;;;;;0.93;0.93;;;;;;;;;;5085715;28;20178;-77
2023/04/28 10:07:50;;;;;;;2.47;1.40;;;;;;;;;;5079879;28;20188;-76
2023/04/28 10:10:15;;;;;;;1.30;1.20;;;;;;;;;;5083250;28;20211;-76
2023/04/28 10:12:41;;;;;;;1.23;1.20;;;;;;;;;;5078896;28;20186;-76
2023/04/28 10:15:08;;;;;;;0.73;0.73;;;;;;;;;;5077743;28;20181;-77
2023/04/28 10:17:33;;;;;;;1.03;0.93;;;;;;;;;;5082876;28;20243;-77
2023/04/28 10:19:59;;;;;;;1.20;1.10;;;;;;;;;;5078446;28;20333;-76
2023/04/28 10:22:44;;;;;;;1.03;1.00;;;;;;;;;;5085649;28;20191;-76
2023/04/28 10:25:10;;;;;;;1.60;0.80;;;;;;;;;;5079568;28;20195;-76
2023/04/28 10:27:37;;;;;;;0.97;0.97;;;;;;;;;;5088084;28;20229;-76
2023/04/28 10:30:16;;;;;;;1.17;1.07;;;;;;;;;;5077265;28;20205;-77
2023/04/28 10:32:42;;;;;;;1.00;1.00;;;;;;;;;;5086398;28;20173;-76
2023/04/28 10:35:19;;;;;;;1.60;1.00;;;;;;;;;;5083999;28;20181;-77
2023/04/28 10:38:10;;;;;;;1.10;1.10;;;;;;;;;;5081156;28;20208;-77
2023/04/28 10:40:37;;;;;;;0.90;0.90;;;;;;;;;;5074784;28;20192;-76
2023/04/28 10:43:03;;;;;;;1.40;1.30;;;;;;;;;;5079334;28;20185;-76
2023/04/28 10:45:47;;;;;;;0.83;0.83;;;;;;;;;;5082502;28;20197;-77
2023/04/28 10:48:12;;;;;;;1.13;1.10;;;;;;;;;;5086749;28;20189;-76
2023/04/28 10:50:55;;;;;;;0.80;0.80;;;;;;;;;;5089243;28;20181;-77
2023/04/28 10:53:20;;;;;;;0.80;0.80;;;;;;;;;;5088466;28;20178;-77
2023/04/28 10:56:04;;;;;;;1.03;1.03;;;;;;;;;;5086264;28;20197;-77
2023/04/28 10:58:30;;;;;;;1.47;1.20;;;;;;;;;;5081841;28;20176;-77
2023/04/28 11:01:15;;;;;;;1.23;0.90;;;;;;;;;;5083408;28;20184;-76
2023/04/28 11:03:43;;;;;;;1.00;1.00;;;;;;;;;;5091657;28;20207;-77
2023/04/28 11:06:23;;;;;;;1.40;1.30;;;;;;;;;;5100074;28;20192;-77
2023/04/28 11:08:48;;;;;;;1.40;1.30;;;;;;;;;;5084517;28;20205;-77
2023/04/28 11:11:15;;;;;;;1.40;1.30;;;;;;;;;;5086089;28;20231;-77
2023/04/28 11:13:41;;;;;;;1.50;1.40;;;;;;;;;;5081113;28;20178;-77
2023/04/28 11:16:06;;;;;;;1.17;1.17;;;;;;;;;;5084892;28;20244;-77
2023/04/28 11:18:51;;;;;;;1.00;1.00;;;;;;;;;;5090623;28;20177;-76
2023/04/28 11:21:16;;;;;;;2.73;1.40;;;;;;;;;;5096487;27;20195;-77
2023/04/28 11:23:42;;;;;;;1.13;1.03;;;;;;;;;;5099826;28;20229;-77
2023/04/28 11:26:07;;;;;;;1.33;1.23;;;;;;;;;;5086582;28;20170;-76
2023/04/28 11:28:33;;;;;;;2.50;1.50;;;;;;;;;;5082707;28;20258;-76
2023/04/28 11:31:11;;;;;;;1.97;1.87;;;;;;;;;;5091359;28;20256;-77
2023/04/28 11:33:37;;;;;;;1.27;1.17;;;;;;;;;;5085956;28;20181;-77
2023/04/28 11:36:03;;;;;;;1.33;1.23;;;;;;;;;;5086990;28;20174;-77
2023/04/28 11:38:28;;;;;;;1.63;1.20;;;;;;;;;;5093873;28;20293;-77
2023/04/28 11:40:58;;;;;;;1.70;1.60;;;;;;;;;;5089282;28;20206;-77
2023/04/28 11:43:28;;;;;;;1.43;1.33;;;;;;;;;;5083869;28;20231;-76
2023/04/28 11:45:53;;;;;;;1.77;1.60;;;;;;;;;;5084368;28;20187;-77
2023/04/28 11:48:22;;;;;;;2.10;1.60;;;;;;;;;;5082746;28;20190;-77
2023/04/28 11:50:47;;;;;;;2.23;1.33;;;;;;;;;;5085361;28;20203;-77
2023/04/28 11:53:12;;;;;;;1.00;1.00;;;;;;;;;;5077757;28;20257;-77
2023/04/28 11:55:38;;;;;;;1.10;1.10;;;;;;;;;;5103628;28;20194;-77
2023/04/28 11:58:23;;;;;;;1.10;0.97;;;;;;;;;;5084310;28;20187;-77
2023/04/28 12:01:07;;;;;;;1.27;1.20;;;;;;;;;;5080961;28;20181;-77
2023/04/28 12:03:32;;;;;;;1.17;1.10;;;;;;;;;;5079274;28;20257;-77
2023/04/28 12:05:58;;;;;;;1.10;1.10;;;;;;;;;;5092617;28;20183;-77
2023/04/28 12:08:29;;;;;;;1.07;1.07;;;;;;;;;;5085603;28;20178;-77
2023/04/28 12:11:11;;;;;;;0.90;0.90;;;;;;;;;;5083904;28;20176;-77
2023/04/28 12:13:37;;;;;;;1.30;1.20;;;;;;;;;;5080455;28;20168;-77
2023/04/28 12:16:06;;;;;;;1.13;1.13;;;;;;;;;;5081323;28;20186;-78
2023/04/28 12:18:31;;;;;;;1.20;1.10;;;;;;;;;;5084555;28;20193;-78
2023/04/28 12:20:57;;;;;;;0.97;0.90;;;;;;;;;;5082260;28;20184;-77
2023/04/28 12:23:32;;;;;;;0.90;0.90;;;;;;;;;;5089122;28;20181;-77
2023/04/28 12:25:57;;;;;;;0.90;0.90;;;;;;;;;;5082925;28;20179;-77
2023/04/28 12:28:23;;;;;;;1.10;1.00;;;;;;;;;;5091200;27;20232;-77
2023/04/28 12:30:48;;;;;;;1.50;1.00;;;;;;;;;;5086775;28;20180;-78
2023/04/28 12:33:26;;;;;;;0.70;0.70;;;;;;;;;;5087063;28;20179;-77
2023/04/28 12:35:53;;;;;;;1.10;1.00;;;;;;;;;;5078444;28;20180;-77
2023/04/28 12:38:19;;;;;;;0.87;0.80;;;;;;;;;;5085301;28;20177;-77
2023/04/28 12:40:44;;;;;;;1.00;1.00;;;;;;;;;;5080513;28;20173;-77
2023/04/28 12:43:10;;;;;;;1.43;1.10;;;;;;;;;;5093189;28;20179;-77
2023/04/28 12:45:35;;;;;;;1.10;1.00;;;;;;;;;;5085611;28;20169;-77
2023/04/28 12:48:00;;;;;;;0.70;0.70;;;;;;;;;;5088938;28;20212;-78
2023/04/28 12:50:28;;;;;;;1.60;1.00;;;;;;;;;;5093926;28;20227;-78
2023/04/28 12:52:54;;;;;;;0.70;0.60;;;;;;;;;;5080802;28;20272;-77
2023/04/28 12:55:20;;;;;;;1.57;0.80;;;;;;;;;;5081171;28;20205;-78
2023/04/28 12:57:45;;;;;;;0.60;0.60;;;;;;;;;;5078584;28;20180;-77
2023/04/28 13:00:15;;;;;;;0.60;0.60;;;;;;;;;;5075446;28;20193;-77
2023/04/28 13:02:40;;;;;;;0.60;0.60;;;;;;;;;;5102385;28;20201;-77
2023/04/28 13:05:06;;;;;;;0.73;0.60;;;;;;;;;;5102900;27;20218;-78
2023/04/28 13:07:32;;;;;;;0.77;0.70;;;;;;;;;;5076215;28;20178;-77
2023/04/28 13:09:57;;;;;;;1.30;1.20;;;;;;;;;;5091000;28;20248;-78
2023/04/28 13:12:23;;;;;;;1.17;0.60;;;;;;;;;;5085160;28;20181;-77
2023/04/28 13:14:48;;;;;;;0.70;0.70;;;;;;;;;;5083635;28;20176;-78
2023/04/28 13:17:14;;;;;;;0.60;0.60;;;;;;;;;;5103838;28;20240;-78
2023/04/28 13:19:39;;;;;;;0.70;0.70;;;;;;;;;;5084940;28;20208;-78
2023/04/28 13:22:05;;;;;;;0.70;0.70;;;;;;;;;;5083814;28;20172;-78
2023/04/28 13:24:32;;;;;;;2.63;0.60;;;;;;;;;;5092890;28;20174;-78
2023/04/28 13:26:57;;;;;;;1.13;0.80;;;;;;;;;;5079800;28;20178;-78
2023/04/28 13:29:22;;;;;;;0.67;0.40;;;;;;;;;;5088084;28;20208;-78
2023/04/28 13:31:49;;;;;;;0.93;0.80;;;;;;;;;;5084899;28;20233;-78
2023/04/28 13:34:16;;;;;;;0.50;0.50;;;;;;;;;;5086115;28;20184;-77
2023/04/28 13:36:42;;;;;;;0.60;0.60;;;;;;;;;;5077368;28;20181;-78
2023/04/28 13:39:10;;;;;;;0.60;0.50;;;;;;;;;;5097504;28;20184;-78
2023/04/28 13:41:35;;;;;;;0.40;0.40;;;;;;;;;;5081826;28;20189;-78
2023/04/28 13:44:00;;;;;;;0.60;0.60;;;;;;;;;;5085763;28;20185;-77
2023/04/28 13:46:26;;;;;;;0.90;0.90;;;;;;;;;;5082863;28;20182;-77
2023/04/28 13:48:51;;;;;;;0.60;0.60;;;;;;;;;;5083767;28;20196;-77
2023/04/28 13:51:16;;;;;;;0.53;0.47;;;;;;;;;;5079230;28;20271;-77
2023/04/28 13:53:42;;;;;;;1.63;1.53;;;;;;;;;;5081983;28;20169;-78
2023/04/28 13:56:07;;;;;;;0.70;0.70;;;;;;;;;;5078279;28;20221;-77
2023/04/28 13:58:32;;;;;;;1.07;0.70;;;;;;;;;;5084637;28;20179;-77
2023/04/28 14:00:58;;;;;;;0.80;0.80;;;;;;;;;;5072152;28;20191;-77
2023/04/28 14:03:24;;;;;;;0.60;0.60;;;;;;;;;;5094607;28;20202;-77
2023/04/28 14:05:53;;;;;;;0.50;0.50;;;;;;;;;;5082907;28;20187;-77
2023/04/28 14:08:22;;;;;;;0.50;0.50;;;;;;;;;;5099443;28;20187;-77
2023/04/28 14:10:48;;;;;;;0.30;0.30;;;;;;;;;;5087635;28;20194;-77
2023/04/28 14:13:13;;;;;;;0.40;0.40;;;;;;;;;;5075780;28;20221;-77
2023/04/28 14:15:39;;;;;;;0.93;0.50;;;;;;;;;;5077933;28;20231;-77
2023/04/28 14:18:04;;;;;;;0.50;0.50;;;;;;;;;;5084263;28;20263;-77
2023/04/28 14:20:29;;;;;;;4.30;3.53;;;;;;;;;;5081210;28;20176;-77
2023/04/28 14:22:55;;;;;;;0.40;0.40;;;;;;;;;;5087124;28;20199;-77
2023/04/28 14:25:20;;;;;;;0.40;0.40;;;;;;;;;;5085273;28;20180;-77
2023/04/28 14:27:49;;;;;;;0.43;0.40;;;;;;;;;;5081591;28;20228;-78
2023/04/28 14:30:15;;;;;;;0.67;0.67;;;;;;;;;;5102934;27;20213;-78
2023/04/28 14:32:40;;;;;;;1.00;0.57;;;;;;;;;;5086499;28;20180;-77
2023/04/28 14:35:06;;;;;;;0.37;0.37;;;;;;;;;;5086007;28;20315;-77
2023/04/28 14:37:31;;;;;;;0.30;0.30;;;;;;;;;;5096374;28;20167;-77